Time;durP1;ratioP1;P1;durP2;ratioP2;P2;SDS_P1;SDS_P2;PMS_P1;PMS_P2;Temp;Humidity;BMP_temperature;BMP_pressure;BME280_temperature;BME280_humidity;BME280_pressure;Samples;Min_cycle;Max_cycle;Signal;HPM_P1;HPM_P2
2023/09/01 00:01:51;;;;;;;13.63;7.80;;;;;;;18.90;73.64;99382.56;5022497;28;20044;-43
2023/09/01 00:04:36;;;;;;;16.50;7.63;;;;;;;18.86;73.91;99375.84;5019362;28;20077;-41
2023/09/01 00:07:02;;;;;;;18.08;8.13;;;;;;;18.73;73.97;99356.63;5022191;28;20080;-43
2023/09/01 00:09:28;;;;;;;14.98;7.57;;;;;;;18.84;74.16;99376.91;5008763;28;20080;-42
2023/09/01 00:11:53;;;;;;;14.38;7.40;;;;;;;18.65;74.17;99348.44;5025753;28;20037;-42
2023/09/01 00:14:19;;;;;;;12.52;6.75;;;;;;;18.66;74.32;99350.13;5025387;28;20068;-42
2023/09/01 00:16:45;;;;;;;12.85;7.10;;;;;;;18.62;74.34;99353.94;5007992;28;20045;-42
2023/09/01 00:19:12;;;;;;;11.35;6.60;;;;;;;18.79;74.39;99379.06;5054554;28;20099;-44
2023/09/01 00:21:39;;;;;;;20.05;8.05;;;;;;;18.63;74.77;99344.25;5023028;28;20041;-41
2023/09/01 00:24:06;;;;;;;15.38;6.95;;;;;;;18.75;74.60;99370.50;5023154;28;22030;-42
2023/09/01 00:26:33;;;;;;;14.45;6.97;;;;;;;18.58;74.83;99357.72;5022304;28;20448;-43
2023/09/01 00:28:59;;;;;;;13.93;6.82;;;;;;;18.56;75.01;99354.38;5017407;28;20132;-42
2023/09/01 00:31:25;;;;;;;15.75;7.15;;;;;;;18.69;75.21;99373.59;5022418;28;20041;-43
2023/09/01 00:33:51;;;;;;;12.98;7.80;;;;;;;18.67;75.21;99375.50;5023017;28;20052;-42
2023/09/01 00:36:17;;;;;;;19.73;7.85;;;;;;;18.66;75.20;99380.88;5022824;28;20491;-45
2023/09/01 00:38:43;;;;;;;19.58;8.43;;;;;;;18.63;75.48;99375.84;5022589;28;20044;-42
2023/09/01 00:41:09;;;;;;;14.18;8.00;;;;;;;18.63;75.50;99380.13;5025430;28;20037;-41
2023/09/01 00:43:35;;;;;;;13.00;7.78;;;;;;;18.63;75.66;99381.94;5025831;28;20395;-44
2023/09/01 00:46:01;;;;;;;12.95;7.30;;;;;;;18.60;75.84;99374.25;5024925;28;20041;-44
2023/09/01 00:48:27;;;;;;;15.52;7.45;;;;;;;18.57;75.88;99383.22;5018370;28;20045;-45
2023/09/01 00:50:53;;;;;;;13.93;7.28;;;;;;;18.55;76.48;99377.22;5024518;28;20041;-45
2023/09/01 00:53:19;;;;;;;11.00;7.93;;;;;;;18.54;76.21;99372.91;5024647;28;20064;-41
2023/09/01 00:55:45;;;;;;;11.27;7.10;;;;;;;18.54;76.58;99374.69;5009181;28;20545;-49
2023/09/01 00:58:11;;;;;;;14.30;7.57;;;;;;;18.51;76.69;99370.47;5018580;28;20069;-42
2023/09/01 01:00:37;;;;;;;18.33;7.65;;;;;;;18.50;76.79;99371.41;5009179;28;20041;-44
2023/09/01 01:03:04;;;;;;;17.63;8.30;;;;;;;18.49;76.86;99363.63;5009037;28;20041;-45
2023/09/01 01:05:40;;;;;;;16.45;8.50;;;;;;;18.46;77.13;99362.06;5008500;28;20832;-43
2023/09/01 01:08:12;;;;;;;16.13;7.90;;;;;;;18.45;77.31;99370.06;5022402;28;20042;-44
2023/09/01 01:10:46;;;;;;;11.70;8.35;;;;;;;18.43;77.71;99374.59;5024673;28;20429;-43
2023/09/01 01:13:21;;;;;;;16.75;8.32;;;;;;;18.40;77.92;99378.28;5026671;28;20081;-44
2023/09/01 01:15:51;;;;;;;14.43;8.40;;;;;;;18.36;78.11;99368.94;5037847;28;20064;-43
2023/09/01 01:18:18;;;;;;;18.60;8.52;;;;;;;18.20;78.45;99355.19;5007475;28;20041;-42
2023/09/01 01:20:46;;;;;;;18.63;8.43;;;;;;;18.31;78.55;99370.22;5009132;28;20512;-46
2023/09/01 01:23:17;;;;;;;14.85;8.00;;;;;;;18.29;78.91;99369.47;4994937;28;20056;-43
2023/09/01 01:25:47;;;;;;;15.50;8.25;;;;;;;18.28;78.71;99373.88;5029221;28;20084;-43
2023/09/01 01:28:14;;;;;;;12.98;7.80;;;;;;;18.27;78.74;99368.72;5027756;28;20127;-44
2023/09/01 01:30:39;;;;;;;16.58;8.05;;;;;;;18.25;78.93;99371.50;5028879;28;20041;-45
2023/09/01 01:33:10;;;;;;;21.08;8.88;;;;;;;18.12;78.70;99341.72;5012000;28;20037;-46
2023/09/01 01:35:51;;;;;;;14.75;8.40;;;;;;;18.23;79.28;99372.53;5012655;28;20037;-41
2023/09/01 01:38:21;;;;;;;14.63;8.10;;;;;;;18.21;79.35;99377.94;5021569;28;20068;-42
2023/09/01 01:40:53;;;;;;;16.13;8.70;;;;;;;18.18;79.61;99363.19;5028922;28;20045;-43
2023/09/01 01:43:23;;;;;;;15.40;8.63;;;;;;;18.18;79.65;99370.22;5011611;28;20095;-43
2023/09/01 01:45:49;;;;;;;16.10;9.43;;;;;;;18.17;79.52;99363.28;5021217;28;20045;-46
2023/09/01 01:48:15;;;;;;;18.20;9.50;;;;;;;18.13;79.78;99367.94;5014920;28;20045;-42
2023/09/01 01:50:41;;;;;;;14.13;8.45;;;;;;;18.12;80.01;99366.22;5010588;28;20571;-44
2023/09/01 01:53:08;;;;;;;19.00;9.05;;;;;;;18.10;80.04;99376.03;5013664;28;20045;-43
2023/09/01 01:55:34;;;;;;;18.17;9.75;;;;;;;17.95;80.35;99347.34;5025896;28;20097;-43
2023/09/01 01:58:01;;;;;;;20.17;9.55;;;;;;;18.07;80.33;99368.34;5028098;28;20045;-43
2023/09/01 02:00:30;;;;;;;21.73;9.13;;;;;;;18.04;80.18;99368.56;5011032;28;20120;-44
2023/09/01 02:02:56;;;;;;;15.63;8.18;;;;;;;18.03;80.47;99372.16;5020843;28;20045;-46
2023/09/01 02:05:22;;;;;;;18.40;9.13;;;;;;;17.95;80.40;99361.31;5019506;28;20071;-44
2023/09/01 02:07:48;;;;;;;16.15;8.45;;;;;;;17.97;80.63;99363.84;5008113;28;20054;-43
2023/09/01 02:10:14;;;;;;;18.65;10.07;;;;;;;17.97;80.94;99371.72;5011187;28;20045;-42
2023/09/01 02:12:40;;;;;;;22.58;8.52;;;;;;;17.95;80.85;99369.19;5007481;28;20041;-42
2023/09/01 02:15:09;;;;;;;20.17;8.48;;;;;;;17.91;80.85;99359.84;5010234;28;20060;-43
2023/09/01 02:17:37;;;;;;;15.65;9.00;;;;;;;17.90;81.20;99373.94;5028122;28;20102;-44
2023/09/01 02:20:26;;;;;;;16.63;9.85;;;;;;;17.88;81.52;99367.97;5026721;28;20501;-44
2023/09/01 02:23:14;;;;;;;17.00;10.50;;;;;;;17.70;81.69;99343.75;5009505;28;20042;-44
2023/09/01 02:25:39;;;;;;;19.45;8.48;;;;;;;17.81;81.77;99366.69;5029365;28;20041;-43
2023/09/01 02:28:05;;;;;;;19.77;8.65;;;;;;;17.81;81.80;99376.38;5035330;28;20048;-45
2023/09/01 02:30:31;;;;;;;15.30;8.50;;;;;;;17.77;82.08;99368.69;5022077;28;20065;-43
2023/09/01 02:32:57;;;;;;;15.98;8.85;;;;;;;17.77;82.32;99375.75;5023023;28;20110;-43
2023/09/01 02:35:23;;;;;;;20.77;9.02;;;;;;;17.60;82.47;99355.00;5021643;28;20052;-44
2023/09/01 02:37:49;;;;;;;16.13;9.25;;;;;;;17.72;82.77;99378.69;5025334;28;20071;-43
2023/09/01 02:40:15;;;;;;;17.08;10.15;;;;;;;17.74;83.01;99381.22;5035997;28;20038;-45
2023/09/01 02:42:42;;;;;;;17.67;9.35;;;;;;;17.72;82.87;99372.59;5043400;28;20805;-43
2023/09/01 02:45:12;;;;;;;18.33;10.02;;;;;;;17.71;83.02;99379.63;5017805;28;20751;-44
2023/09/01 02:47:38;;;;;;;22.73;11.70;;;;;;;17.71;82.88;99377.00;5020107;28;20087;-43
2023/09/01 02:50:04;;;;;;;21.60;11.48;;;;;;;17.70;82.93;99370.06;5025001;28;20042;-44
2023/09/01 02:52:31;;;;;;;19.23;9.27;;;;;;;17.58;83.01;99352.47;5037466;28;20046;-45
2023/09/01 02:54:58;;;;;;;18.25;9.23;;;;;;;17.70;83.01;99377.94;5018111;28;20084;-44
2023/09/01 02:57:23;;;;;;;21.10;9.70;;;;;;;17.69;83.30;99370.19;5028846;28;20053;-42
2023/09/01 02:59:51;;;;;;;12.57;8.70;;;;;;;17.68;83.77;99377.22;5030239;28;20033;-43
2023/09/01 03:02:16;;;;;;;18.63;9.15;;;;;;;17.68;83.76;99379.00;5010738;28;20084;-43
2023/09/01 03:04:42;;;;;;;18.83;11.55;;;;;;;17.67;83.82;99380.78;5026441;28;20061;-42
2023/09/01 03:07:08;;;;;;;17.83;10.43;;;;;;;17.69;83.67;99384.13;5028637;28;20053;-41
2023/09/01 03:09:34;;;;;;;18.05;9.23;;;;;;;17.71;83.74;99376.16;5026565;28;20043;-42
2023/09/01 03:12:00;;;;;;;16.70;10.38;;;;;;;17.71;83.53;99387.53;5031157;28;20120;-43
2023/09/01 03:14:29;;;;;;;18.00;9.95;;;;;;;17.73;83.68;99390.91;4993386;28;20127;-42
2023/09/01 03:16:56;;;;;;;16.58;8.88;;;;;;;17.61;83.66;99365.44;5023325;28;20042;-44
2023/09/01 03:19:22;;;;;;;17.05;9.50;;;;;;;17.75;83.83;99385.50;5020071;28;20037;-47
2023/09/01 03:21:48;;;;;;;19.88;9.98;;;;;;;17.73;83.99;99379.53;5027502;28;20091;-43
2023/09/01 03:24:14;;;;;;;18.33;9.40;;;;;;;17.79;84.02;99389.63;5023716;28;20144;-48
2023/09/01 03:26:40;;;;;;;15.48;9.48;;;;;;;17.82;83.97;99396.47;4993508;28;20462;-44
2023/09/01 03:29:06;;;;;;;19.02;10.13;;;;;;;17.83;84.04;99393.72;5019843;28;20046;-46
2023/09/01 03:31:31;;;;;;;18.25;10.23;;;;;;;17.87;84.12;99399.63;5026370;28;20041;-51
2023/09/01 03:34:00;;;;;;;15.10;9.53;;;;;;;17.77;84.12;99375.75;5018060;28;20096;-44
2023/09/01 03:36:27;;;;;;;15.68;9.55;;;;;;;17.93;83.82;99391.31;5010178;28;20371;-48
2023/09/01 03:38:59;;;;;;;19.25;9.02;;;;;;;17.96;83.83;99398.97;5022922;28;20137;-45
2023/09/01 03:41:25;;;;;;;22.48;10.63;;;;;;;17.80;83.65;99372.88;5008980;28;20044;-47
2023/09/01 03:43:51;;;;;;;20.25;9.63;;;;;;;17.87;83.61;99382.06;5009593;28;20041;-42
2023/09/01 03:46:17;;;;;;;17.30;9.10;;;;;;;18.04;83.59;99408.03;5018401;28;20073;-46
2023/09/01 03:48:43;;;;;;;16.35;9.55;;;;;;;18.09;83.62;99412.97;5026891;28;20421;-46
2023/09/01 03:51:16;;;;;;;18.35;9.60;;;;;;;18.14;83.21;99406.44;5026477;28;20045;-44
2023/09/01 03:53:42;;;;;;;16.38;9.43;;;;;;;18.19;82.84;99412.22;5015109;28;20190;-46
2023/09/01 03:56:11;;;;;;;17.67;9.70;;;;;;;18.26;82.65;99409.19;5006953;28;20150;-46
2023/09/01 03:58:37;;;;;;;16.45;9.23;;;;;;;18.17;82.03;99395.69;5025950;28;20060;-44
2023/09/01 04:01:14;;;;;;;20.65;10.48;;;;;;;18.38;81.73;99424.09;5053317;28;20041;-44
2023/09/01 04:03:45;;;;;;;18.08;9.73;;;;;;;18.18;81.58;99378.13;5008952;28;20457;-45
2023/09/01 04:06:12;;;;;;;19.00;10.07;;;;;;;18.51;81.11;99424.91;5014897;28;20068;-43
2023/09/01 04:08:38;;;;;;;19.48;9.63;;;;;;;18.59;80.43;99420.81;5015911;28;20038;-42
2023/09/01 04:11:05;;;;;;;19.25;9.50;;;;;;;18.70;80.07;99420.03;5020244;28;20107;-43
2023/09/01 04:13:31;;;;;;;22.02;10.27;;;;;;;18.81;79.26;99417.47;5026109;28;20045;-43
2023/09/01 04:15:58;;;;;;;16.85;9.40;;;;;;;18.94;78.98;99415.66;5024921;28;20404;-44
2023/09/01 04:18:24;;;;;;;19.90;9.38;;;;;;;19.08;78.29;99417.25;5014886;28;20033;-45
2023/09/01 04:20:53;;;;;;;19.75;9.23;;;;;;;19.21;77.60;99419.84;4993389;28;20128;-44
2023/09/01 04:23:20;;;;;;;18.42;8.40;;;;;;;19.32;76.94;99412.81;5025753;28;20040;-45
2023/09/01 04:25:47;;;;;;;20.77;9.90;;;;;;;19.40;76.93;99414.88;5025687;28;20045;-46
2023/09/01 04:28:15;;;;;;;20.05;9.48;;;;;;;19.50;76.21;99410.63;5025441;28;20038;-41
2023/09/01 04:30:47;;;;;;;23.17;9.23;;;;;;;19.59;75.68;99409.09;5015424;28;20086;-45
2023/09/01 04:33:13;;;;;;;13.85;9.18;;;;;;;19.60;75.22;99398.44;5024113;28;20404;-45
2023/09/01 04:35:39;;;;;;;18.25;8.82;;;;;;;19.75;74.58;99409.59;4990127;28;20095;-43
2023/09/01 04:38:06;;;;;;;18.95;9.23;;;;;;;19.88;73.83;99410.38;5034404;28;20463;-46
2023/09/01 04:40:32;;;;;;;24.20;8.98;;;;;;;20.00;73.34;99400.63;5016299;28;20038;-43
2023/09/01 04:42:57;;;;;;;14.63;9.23;;;;;;;20.13;72.70;99404.03;5002202;28;20420;-44
2023/09/01 04:45:23;;;;;;;15.40;9.07;;;;;;;20.27;71.94;99401.13;5008372;28;20033;-47
2023/09/01 04:47:52;;;;;;;23.35;9.27;;;;;;;20.39;71.30;99410.75;5026782;28;20118;-43
2023/09/01 04:50:18;;;;;;;21.85;9.07;;;;;;;20.49;70.83;99408.22;5026567;28;20037;-45
2023/09/01 04:52:44;;;;;;;18.63;9.20;;;;;;;20.39;70.31;99373.78;5027137;28;20557;-47
2023/09/01 04:55:11;;;;;;;16.20;8.82;;;;;;;20.51;69.78;99401.88;5012140;28;20037;-45
2023/09/01 04:57:38;;;;;;;25.25;11.77;;;;;;;20.40;69.48;99378.13;5026840;28;20037;-45
2023/09/01 05:00:15;;;;;;;21.33;9.43;;;;;;;20.59;69.32;99394.16;5011725;28;20462;-44
2023/09/01 05:02:44;;;;;;;20.80;9.70;;;;;;;20.49;69.10;99372.09;4987206;28;20048;-44
2023/09/01 05:05:11;;;;;;;19.92;9.23;;;;;;;20.70;68.90;99394.16;5011002;28;20037;-43
2023/09/01 05:07:38;;;;;;;17.40;9.13;;;;;;;20.50;68.23;99335.97;5034346;28;20052;-47
2023/09/01 05:10:04;;;;;;;19.13;9.50;;;;;;;20.78;67.23;99392.69;5010877;28;20045;-47
2023/09/01 05:12:30;;;;;;;18.58;9.60;;;;;;;20.81;66.79;99401.22;5010190;28;20049;-42
2023/09/01 05:14:56;;;;;;;17.25;9.18;;;;;;;20.87;66.62;99400.72;5024012;28;20052;-44
2023/09/01 05:17:22;;;;;;;19.40;8.70;;;;;;;20.97;66.23;99409.56;5027835;28;20041;-42
2023/09/01 05:19:48;;;;;;;21.38;10.95;;;;;;;21.03;65.82;99402.94;5028103;28;20120;-44
2023/09/01 05:22:14;;;;;;;16.08;8.75;;;;;;;21.01;65.85;99378.44;5028518;28;20132;-44
2023/09/01 05:24:41;;;;;;;16.92;9.07;;;;;;;21.21;65.26;99400.63;5030282;28;20206;-45
2023/09/01 05:27:07;;;;;;;17.25;9.05;;;;;;;21.43;64.68;99408.44;5010522;28;20071;-45
2023/09/01 05:29:33;;;;;;;16.80;9.15;;;;;;;21.53;64.65;99404.91;5027829;28;20135;-44
2023/09/01 05:31:58;;;;;;;11.85;8.23;;;;;;;21.64;64.13;99404.00;5010262;28;20519;-47
2023/09/01 05:34:25;;;;;;;16.70;9.25;;;;;;;21.75;63.80;99413.69;5007782;28;20119;-42
2023/09/01 05:36:51;;;;;;;19.42;8.63;;;;;;;21.79;63.77;99412.44;4991217;28;20045;-46
2023/09/01 05:39:17;;;;;;;15.18;8.98;;;;;;;21.75;63.06;99408.41;5020202;28;20038;-44
2023/09/01 05:41:43;;;;;;;16.40;8.50;;;;;;;21.61;62.63;99385.75;5002978;28;20042;-44
2023/09/01 05:44:09;;;;;;;12.93;8.45;;;;;;;21.89;62.36;99410.69;5017804;28;20049;-45
2023/09/01 05:46:35;;;;;;;22.90;8.73;;;;;;;22.01;62.31;99409.69;5027297;28;20045;-44
2023/09/01 05:49:01;;;;;;;17.83;9.57;;;;;;;22.15;62.05;99409.34;5010776;28;20091;-44
2023/09/01 05:51:27;;;;;;;18.45;8.77;;;;;;;22.18;61.72;99385.25;5027807;28;20127;-47
2023/09/01 05:53:53;;;;;;;19.67;10.65;;;;;;;22.49;61.19;99404.59;5028968;28;20592;-44
2023/09/01 05:56:19;;;;;;;18.35;8.60;;;;;;;22.65;60.62;99410.22;5022421;28;20056;-43
2023/09/01 05:58:44;;;;;;;20.75;8.85;;;;;;;22.84;60.09;99411.25;5029348;28;20128;-44
2023/09/01 06:01:10;;;;;;;15.32;8.98;;;;;;;23.03;59.54;99414.78;5029131;28;20048;-45
2023/09/01 06:03:36;;;;;;;20.92;9.40;;;;;;;23.20;58.85;99418.56;5027875;28;20088;-42
2023/09/01 06:06:02;;;;;;;19.52;9.48;;;;;;;23.56;57.47;99401.13;5023979;28;20152;-45
2023/09/01 06:08:28;;;;;;;20.27;8.05;;;;;;;24.29;56.30;99410.16;5028203;28;20079;-47
2023/09/01 06:11:04;;;;;;;20.67;8.25;;;;;;;24.76;53.74;99385.16;5005334;28;20041;-43
2023/09/01 06:13:30;;;;;;;17.42;7.95;;;;;;;25.63;52.67;99401.31;5004953;28;20065;-43
2023/09/01 06:15:56;;;;;;;15.82;8.02;;;;;;;26.23;51.06;99414.69;5024351;28;20041;-44
2023/09/01 06:18:22;;;;;;;17.58;7.93;;;;;;;27.17;49.44;99414.53;5027606;28;20120;-43
2023/09/01 06:20:48;;;;;;;17.70;11.27;;;;;;;28.11;47.95;99418.34;5023501;28;20041;-44
2023/09/01 06:23:14;;;;;;;15.60;9.13;;;;;;;28.96;45.59;99414.03;5022954;28;20433;-45
2023/09/01 06:25:40;;;;;;;22.65;8.63;;;;;;;29.64;44.16;99413.22;5025187;28;20088;-43
2023/09/01 06:28:05;;;;;;;21.80;8.80;;;;;;;30.54;42.77;99405.09;5027034;28;20117;-45
2023/09/01 06:30:31;;;;;;;11.15;8.13;;;;;;;31.15;40.68;99409.13;5028981;28;20042;-45
2023/09/01 06:32:57;;;;;;;21.02;9.88;;;;;;;31.66;39.59;99401.81;5025886;28;20045;-43
2023/09/01 06:35:23;;;;;;;14.25;8.93;;;;;;;32.11;37.67;99395.09;5018580;28;20049;-42
2023/09/01 06:37:49;;;;;;;14.45;8.00;;;;;;;32.71;36.53;99415.91;5009360;28;20437;-43
2023/09/01 06:40:15;;;;;;;16.42;7.60;;;;;;;33.03;34.76;99413.53;5026542;28;20053;-43
2023/09/01 06:42:40;;;;;;;12.63;7.28;;;;;;;33.45;34.49;99412.38;5010110;28;20069;-43
2023/09/01 06:45:07;;;;;;;15.85;9.00;;;;;;;34.17;33.25;99423.16;5010420;28;20092;-42
2023/09/01 06:47:33;;;;;;;20.67;8.57;;;;;;;34.91;32.79;99422.75;5025275;28;20043;-45
2023/09/01 06:49:59;;;;;;;17.13;8.35;;;;;;;35.54;31.85;99425.50;5008939;28;20045;-44
2023/09/01 06:52:25;;;;;;;27.90;9.13;;;;;;;35.87;30.74;99414.41;5021132;28;20041;-44
2023/09/01 06:54:50;;;;;;;19.88;8.38;;;;;;;36.43;29.09;99422.41;5030443;28;20147;-47
2023/09/01 06:57:16;;;;;;;18.52;7.90;;;;;;;36.61;29.01;99432.38;5026789;28;20049;-45
2023/09/01 06:59:42;;;;;;;18.30;7.57;;;;;;;36.50;28.14;99432.09;5023253;28;20068;-45
2023/09/01 07:02:08;;;;;;;14.48;6.65;;;;;;;36.32;28.07;99429.38;5024934;28;20047;-44
2023/09/01 07:04:34;;;;;;;11.95;6.70;;;;;;;36.72;27.43;99437.91;5028795;28;20044;-43
2023/09/01 07:07:00;;;;;;;19.90;7.43;;;;;;;36.65;27.10;99436.31;5024826;28;20068;-49
2023/09/01 07:09:26;;;;;;;12.43;7.20;;;;;;;36.91;26.84;99430.56;5009059;28;20052;-44
2023/09/01 07:11:52;;;;;;;14.45;6.72;;;;;;;36.99;27.00;99429.41;5027199;28;20633;-47
2023/09/01 07:14:17;;;;;;;17.15;7.03;;;;;;;37.19;26.21;99427.28;5026604;28;20512;-43
2023/09/01 07:16:43;;;;;;;20.00;7.30;;;;;;;37.62;26.01;99429.78;5024260;28;20072;-46
2023/09/01 07:19:09;;;;;;;13.00;6.43;;;;;;;37.97;25.18;99433.34;5023554;28;20048;-45
2023/09/01 07:21:35;;;;;;;15.00;6.63;;;;;;;38.04;24.84;99439.50;5026666;28;20057;-46
2023/09/01 07:24:01;;;;;;;19.23;6.30;;;;;;;37.89;24.87;99428.28;5026587;28;20425;-45
2023/09/01 07:26:27;;;;;;;11.23;6.03;;;;;;;38.19;24.99;99430.88;5021283;28;20121;-46
2023/09/01 07:28:52;;;;;;;14.50;6.00;;;;;;;38.40;24.45;99429.44;5021791;28;20067;-43
2023/09/01 07:31:18;;;;;;;15.27;6.25;;;;;;;38.55;24.00;99429.78;5027482;28;20049;-43
2023/09/01 07:33:44;;;;;;;14.68;6.78;;;;;;;38.62;24.19;99416.88;5041786;28;20041;-48
2023/09/01 07:36:10;;;;;;;11.55;6.47;;;;;;;39.22;23.55;99428.13;5027784;28;20046;-46
2023/09/01 07:38:37;;;;;;;17.85;6.10;;;;;;;38.96;23.39;99421.38;5009609;28;20038;-50
2023/09/01 07:41:07;;;;;;;13.25;6.50;;;;;;;38.95;23.24;99422.44;5010116;28;20153;-46
2023/09/01 07:43:34;;;;;;;10.90;6.45;;;;;;;38.79;23.44;99430.50;5023794;28;20046;-47
2023/09/01 07:46:00;;;;;;;16.17;6.47;;;;;;;39.21;23.59;99417.47;5018549;28;20501;-49
2023/09/01 07:48:26;;;;;;;17.17;6.80;;;;;;;39.32;22.99;99411.97;5019808;28;20412;-48
2023/09/01 07:50:53;;;;;;;16.15;6.25;;;;;;;39.32;22.90;99422.03;5010351;28;20044;-45
2023/09/01 07:53:18;;;;;;;11.38;5.63;;;;;;;39.98;22.82;99436.78;5019225;28;20050;-44
2023/09/01 07:55:44;;;;;;;15.05;6.15;;;;;;;39.71;22.82;99428.44;5022605;28;20047;-47
2023/09/01 07:58:10;;;;;;;15.52;5.72;;;;;;;40.11;22.53;99409.19;5021781;28;20033;-46
2023/09/01 08:00:37;;;;;;;14.82;5.95;;;;;;;41.30;21.48;99431.09;5035886;28;20063;-46
2023/09/01 08:03:03;;;;;;;13.52;6.47;;;;;;;41.39;20.78;99435.03;5029514;28;20048;-43
2023/09/01 08:05:29;;;;;;;11.50;5.88;;;;;;;41.00;21.31;99429.69;5018595;28;20037;-47
2023/09/01 08:07:55;;;;;;;17.42;6.05;;;;;;;40.78;21.43;99428.06;5026734;28;20045;-44
2023/09/01 08:10:21;;;;;;;12.77;6.25;;;;;;;40.91;21.29;99423.06;5022408;28;20037;-44
2023/09/01 08:12:47;;;;;;;14.85;6.07;;;;;;;41.19;21.47;99429.38;5020333;28;20364;-43
2023/09/01 08:15:13;;;;;;;18.23;6.25;;;;;;;41.62;20.94;99425.66;5019962;28;20153;-50
2023/09/01 08:17:39;;;;;;;14.65;5.70;;;;;;;41.35;21.16;99403.88;5025680;28;20047;-47
2023/09/01 08:20:05;;;;;;;12.10;5.50;;;;;;;41.02;21.26;99419.38;5016264;28;20555;-48
2023/09/01 08:22:31;;;;;;;21.90;5.78;;;;;;;41.31;21.07;99416.38;5026857;28;20068;-45
2023/09/01 08:24:57;;;;;;;8.35;5.40;;;;;;;41.75;20.73;99420.59;5023583;28;20892;-44
2023/09/01 08:27:26;;;;;;;13.85;5.32;;;;;;;41.75;20.57;99419.78;5018177;28;20048;-46
2023/09/01 08:29:51;;;;;;;23.88;6.47;;;;;;;41.70;20.46;99419.75;5020009;28;20448;-46
2023/09/01 08:32:17;;;;;;;11.23;6.20;;;;;;;41.68;20.71;99414.53;5029409;28;20052;-45
2023/09/01 08:34:43;;;;;;;16.58;6.75;;;;;;;41.98;20.36;99416.66;5003864;28;20413;-45
2023/09/01 08:37:10;;;;;;;16.92;5.40;;;;;;;42.17;20.33;99414.34;5006962;28;20131;-51
2023/09/01 08:39:36;;;;;;;12.75;5.40;;;;;;;42.72;19.92;99410.25;5023146;28;20063;-46
2023/09/01 08:42:02;;;;;;;17.63;6.28;;;;;;;43.60;19.42;99394.53;5009447;28;20890;-49
2023/09/01 08:44:29;;;;;;;19.17;5.63;;;;;;;43.82;18.62;99406.00;5007041;28;20041;-46
2023/09/01 08:46:57;;;;;;;13.05;5.68;;;;;;;43.02;19.16;99411.16;5026160;28;20091;-46
2023/09/01 08:49:27;;;;;;;13.13;5.68;;;;;;;42.15;19.77;99420.06;5024085;28;20045;-47
2023/09/01 08:51:55;;;;;;;13.35;6.07;;;;;;;41.83;19.82;99411.09;5022293;28;20127;-44
2023/09/01 08:54:21;;;;;;;13.07;5.65;;;;;;;41.80;19.61;99397.97;5025093;28;20041;-48
2023/09/01 08:56:50;;;;;;;14.57;6.43;;;;;;;41.83;19.69;99408.34;5026936;28;20172;-46
2023/09/01 08:59:16;;;;;;;11.48;5.45;;;;;;;41.78;19.67;99384.56;5027148;28;20544;-45
2023/09/01 09:01:42;;;;;;;10.02;6.22;;;;;;;42.05;19.57;99406.34;4991126;28;20050;-46
2023/09/01 09:04:08;;;;;;;9.85;5.63;;;;;;;42.45;19.18;99418.63;5025770;28;20433;-46
2023/09/01 09:06:35;;;;;;;11.73;5.45;;;;;;;42.76;19.08;99386.75;5016237;28;20051;-43
2023/09/01 09:09:06;;;;;;;18.88;5.45;;;;;;;42.88;18.56;99407.28;5030802;28;20049;-47
2023/09/01 09:11:32;;;;;;;11.13;6.35;;;;;;;43.39;18.25;99412.88;5020411;28;20885;-44
2023/09/01 09:13:58;;;;;;;11.90;5.90;;;;;;;43.78;18.07;99411.22;5022392;28;20079;-48
2023/09/01 09:16:24;;;;;;;14.60;5.90;;;;;;;43.84;18.10;99410.13;5022029;28;20045;-48
2023/09/01 09:18:50;;;;;;;8.15;5.30;;;;;;;43.40;18.04;99406.28;5019238;28;20056;-49
2023/09/01 09:21:24;;;;;;;9.82;6.70;;;;;;;43.83;17.99;99391.19;5024783;28;20082;-44
2023/09/01 09:23:50;;;;;;;7.53;5.28;;;;;;;44.58;17.29;99409.38;5024099;28;20037;-45
2023/09/01 09:26:16;;;;;;;11.37;5.17;;;;;;;45.29;16.98;99410.91;5017006;28;20072;-47
2023/09/01 09:28:44;;;;;;;13.82;5.10;;;;;;;45.47;16.45;99413.81;5007099;28;20084;-42
2023/09/01 09:31:10;;;;;;;8.90;5.07;;;;;;;45.59;16.79;99398.88;5025141;28;20041;-43
2023/09/01 09:33:38;;;;;;;10.10;4.90;;;;;;;44.88;16.69;99400.19;5025175;28;20156;-42
2023/09/01 09:36:04;;;;;;;8.35;4.50;;;;;;;44.66;16.88;99397.00;5025217;28;20038;-44
2023/09/01 09:38:43;;;;;;;11.02;5.32;;;;;;;45.32;16.63;99393.88;5021059;28;20503;-47
2023/09/01 09:41:09;;;;;;;11.15;5.47;;;;;;;45.89;16.26;99387.59;5010249;28;20049;-44
2023/09/01 09:43:45;;;;;;;10.25;5.30;;;;;;;45.69;16.09;99404.28;5030693;28;20140;-43
2023/09/01 09:46:12;;;;;;;11.33;5.23;;;;;;;45.12;16.53;99387.41;5020799;28;20052;-44
2023/09/01 09:48:39;;;;;;;7.25;5.03;;;;;;;43.94;17.33;99390.13;5025305;28;20041;-45
2023/09/01 09:51:09;;;;;;;13.32;5.05;;;;;;;43.12;17.77;99383.00;4979751;28;20041;-46
2023/09/01 09:53:38;;;;;;;7.13;5.03;;;;;;;44.22;17.25;99388.66;5029162;28;20064;-47
2023/09/01 09:56:30;;;;;;;8.73;4.85;;;;;;;43.67;17.45;99387.66;5009237;28;20441;-44
2023/09/01 09:59:04;;;;;;;9.52;4.90;;;;;;;43.80;17.55;99381.63;5028454;28;20139;-43
2023/09/01 10:01:31;;;;;;;8.25;4.95;;;;;;;43.47;17.45;99377.53;5023428;28;20128;-44
2023/09/01 10:03:58;;;;;;;10.95;4.78;;;;;;;43.53;17.35;99385.78;5028839;28;20507;-45
2023/09/01 10:06:24;;;;;;;6.47;4.82;;;;;;;43.88;17.41;99392.03;5057406;28;20810;-46
2023/09/01 10:08:51;;;;;;;9.70;4.80;;;;;;;43.60;17.29;99387.16;5009139;28;20069;-42
2023/09/01 10:11:17;;;;;;;;;;;;;;;43.61;17.67;99377.81;5018834;28;20134;-43
2023/09/01 10:13:47;;;;;;;13.10;5.07;;;;;;;43.50;17.80;99370.69;5012142;28;19921;-41
2023/09/01 10:16:13;;;;;;;9.48;4.63;;;;;;;43.45;17.84;99370.66;5026812;28;20513;-44
2023/09/01 10:18:42;;;;;;;10.90;4.93;;;;;;;43.39;17.79;99374.53;5028514;28;20076;-45
2023/09/01 10:21:08;;;;;;;6.35;4.68;;;;;;;43.31;17.90;99386.03;5028345;28;20437;-45
2023/09/01 10:23:34;;;;;;;10.25;4.88;;;;;;;43.25;17.86;99382.44;5028226;28;20046;-42
2023/09/01 10:26:26;;;;;;;10.02;4.68;;;;;;;42.63;18.14;99356.03;5011079;28;20424;-46
2023/09/01 10:29:04;;;;;;;8.93;4.57;;;;;;;43.02;18.28;99367.38;5025436;28;20037;-43
2023/09/01 10:31:33;;;;;;;9.95;7.47;;;;;;;43.77;17.47;99362.16;5013253;28;20041;-42
2023/09/01 10:34:08;;;;;;;12.45;6.38;;;;;;;44.78;17.26;99372.81;5025723;28;20041;-43
2023/09/01 10:36:35;;;;;;;12.30;7.25;;;;;;;44.70;16.95;99367.94;5019413;28;20509;-43
2023/09/01 10:39:03;;;;;;;;;;;;;;;44.69;16.99;99380.81;4995098;28;20183;-42
2023/09/01 10:42:07;;;;;;;9.55;4.53;;;;;;;43.63;17.41;99380.28;5027000;28;19921;-41
2023/09/01 10:44:39;;;;;;;8.20;4.95;;;;;;;42.74;17.82;99359.66;4938800;28;20048;-44
2023/09/01 10:47:45;;;;;;;9.52;4.50;;;;;;;43.08;17.81;99359.97;5036286;28;20494;-43
2023/09/01 10:50:12;;;;;;;9.85;5.60;;;;;;;44.01;17.44;99356.94;5015817;28;20101;-46
2023/09/01 10:52:39;;;;;;;9.43;4.85;;;;;;;44.45;16.82;99360.63;5016516;28;20071;-42
2023/09/01 10:55:06;;;;;;;14.85;6.07;;;;;;;44.24;17.37;99359.03;5024461;28;20045;-41
2023/09/01 10:57:38;;;;;;;;;;;;;;;44.88;16.88;99352.72;5030023;28;20052;-41
2023/09/01 11:00:26;;;;;;;11.77;7.00;;;;;;;45.55;16.32;99358.22;5026114;28;19921;-44
2023/09/01 11:02:53;;;;;;;7.72;4.75;;;;;;;44.66;16.47;99350.38;5020417;28;20128;-43
2023/09/01 11:05:38;;;;;;;;;;;;;;;44.59;16.52;99353.41;5020932;28;20053;-40
2023/09/01 11:08:14;;;;;;;6.57;5.10;;;;;;;44.42;16.90;99352.97;5005596;28;19928;-43
2023/09/01 11:10:39;;;;;;;5.80;4.70;;;;;;;44.61;16.57;99353.94;5019082;28;20037;-41
2023/09/01 11:13:13;;;;;;;8.77;4.47;;;;;;;43.72;16.93;99346.56;5027115;28;20287;-41
2023/09/01 11:15:57;;;;;;;10.10;4.80;;;;;;;42.84;17.67;99342.44;5022070;28;20164;-43
2023/09/01 11:18:24;;;;;;;7.57;4.18;;;;;;;43.01;17.60;99330.16;5008351;28;20576;-41
2023/09/01 11:20:54;;;;;;;9.68;4.55;;;;;;;43.57;17.12;99334.81;5032123;28;20091;-42
2023/09/01 11:23:24;;;;;;;9.20;4.93;;;;;;;44.07;17.14;99328.44;5027292;28;20067;-44
2023/09/01 11:26:00;;;;;;;9.32;5.32;;;;;;;44.54;16.64;99334.25;5009361;28;20064;-41
2023/09/01 11:28:28;;;;;;;15.80;5.43;;;;;;;44.67;16.95;99341.03;5027131;28;20523;-45
2023/09/01 11:30:55;;;;;;;7.68;4.70;;;;;;;44.73;16.74;99335.25;5021479;28;20046;-41